Time;durP1;ratioP1;P1;durP2;ratioP2;P2;SDS_P1;SDS_P2;PMS_P1;PMS_P2;Temp;Humidity;BMP_temperature;BMP_pressure;BME280_temperature;BME280_humidity;BME280_pressure;Samples;Min_cycle;Max_cycle;Signal;HPM_P1;HPM_P2
2020/12/25 00:02:15;;;;;;;16.52;11.82;;;;;;;12.12;100.00;100678.63;4975174;28;20070;-73
2020/12/25 00:05:01;;;;;;;19.45;12.40;;;;;;;12.19;100.00;100674.09;4975343;28;20131;-73
2020/12/25 00:07:46;;;;;;;20.02;11.60;;;;;;;11.82;100.00;100687.22;4975612;28;20444;-75
2020/12/25 00:10:32;;;;;;;17.30;11.20;;;;;;;11.76;100.00;100692.63;4974970;28;20049;-73
2020/12/25 00:13:18;;;;;;;19.75;12.55;;;;;;;11.82;100.00;100683.75;4975745;28;20042;-73
2020/12/25 00:16:04;;;;;;;18.65;12.07;;;;;;;12.04;100.00;100696.31;4975295;28;20022;-74
2020/12/25 00:18:49;;;;;;;17.60;11.98;;;;;;;11.80;100.00;100694.28;4975721;28;20034;-74
2020/12/25 00:21:37;;;;;;;16.80;11.40;;;;;;;11.65;100.00;100686.72;4975363;28;20082;-75
2020/12/25 00:24:23;;;;;;;17.23;11.45;;;;;;;11.83;100.00;100696.84;4975225;28;20054;-74
2020/12/25 00:27:08;;;;;;;18.60;11.45;;;;;;;11.57;100.00;100693.88;4974589;28;20411;-74
2020/12/25 00:29:54;;;;;;;17.52;11.20;;;;;;;11.59;100.00;100688.59;4974689;28;20042;-73
2020/12/25 00:32:40;;;;;;;18.58;11.27;;;;;;;11.77;100.00;100689.09;4975871;28;20048;-75
2020/12/25 00:35:25;;;;;;;18.67;11.90;;;;;;;11.62;100.00;100685.94;4976194;28;20023;-74
2020/12/25 00:38:11;;;;;;;17.38;11.10;;;;;;;11.57;100.00;100683.38;4976070;28;20023;-74
2020/12/25 00:40:57;;;;;;;17.55;11.88;;;;;;;11.60;100.00;100683.34;4975630;28;20038;-74
2020/12/25 00:43:43;;;;;;;18.02;11.38;;;;;;;11.64;100.00;100690.25;4975276;28;20076;-74
2020/12/25 00:46:28;;;;;;;17.48;11.45;;;;;;;11.63;100.00;100687.66;4975340;28;20046;-74
2020/12/25 00:49:15;;;;;;;18.65;12.00;;;;;;;11.83;100.00;100695.97;4976085;28;20042;-74
2020/12/25 00:52:01;;;;;;;17.75;12.20;;;;;;;11.72;100.00;100695.34;4975467;28;20375;-74
2020/12/25 00:54:47;;;;;;;19.95;12.88;;;;;;;11.60;100.00;100692.94;4976501;28;20026;-74
2020/12/25 00:57:32;;;;;;;18.05;12.20;;;;;;;11.55;100.00;100679.06;4975532;28;20086;-74
2020/12/25 01:00:18;;;;;;;17.63;11.57;;;;;;;11.62;100.00;100688.56;4978724;28;20061;-74
2020/12/25 01:03:04;;;;;;;19.33;11.55;;;;;;;11.80;100.00;100683.78;4978740;28;20093;-74
2020/12/25 01:05:50;;;;;;;16.30;10.60;;;;;;;11.46;100.00;100674.03;4979192;28;20034;-74
2020/12/25 01:08:36;;;;;;;16.33;10.32;;;;;;;11.56;100.00;100673.78;4978405;28;20042;-73
2020/12/25 01:11:25;;;;;;;17.88;11.75;;;;;;;11.54;100.00;100670.31;4979509;28;20035;-73
2020/12/25 01:14:11;;;;;;;17.83;11.23;;;;;;;11.65;100.00;100675.41;4979075;28;20491;-74
2020/12/25 01:16:57;;;;;;;17.85;11.48;;;;;;;11.55;100.00;100661.59;4979424;28;20073;-74
2020/12/25 01:19:43;;;;;;;16.77;10.63;;;;;;;11.71;100.00;100664.75;4978615;28;20510;-74
2020/12/25 01:22:28;;;;;;;16.67;10.40;;;;;;;11.65;100.00;100655.25;4977530;28;20027;-74
2020/12/25 01:25:14;;;;;;;15.07;10.65;;;;;;;11.45;100.00;100660.03;4978696;28;20459;-74
2020/12/25 01:28:00;;;;;;;15.20;10.13;;;;;;;11.81;100.00;100668.91;4977963;28;20097;-74
2020/12/25 01:30:45;;;;;;;15.88;10.05;;;;;;;11.70;100.00;100665.66;4976998;28;20059;-74
2020/12/25 01:33:35;;;;;;;16.42;10.95;;;;;;;11.69;100.00;100663.94;4977937;28;20019;-74
2020/12/25 01:36:21;;;;;;;17.60;10.30;;;;;;;11.80;100.00;100654.03;4977898;28;20088;-74
2020/12/25 01:39:07;;;;;;;13.88;9.13;;;;;;;11.45;100.00;100648.69;4977689;28;20530;-73
2020/12/25 01:41:52;;;;;;;14.18;9.60;;;;;;;11.74;100.00;100651.56;4978482;28;20069;-74
2020/12/25 01:44:38;;;;;;;15.40;9.77;;;;;;;11.75;100.00;100643.66;4977220;28;20109;-74
2020/12/25 01:47:24;;;;;;;16.33;10.25;;;;;;;11.71;100.00;100649.88;4977150;28;20034;-74
2020/12/25 01:50:13;;;;;;;14.82;10.10;;;;;;;11.81;100.00;100648.75;4977841;28;20042;-73
2020/12/25 01:53:02;;;;;;;16.00;10.70;;;;;;;11.80;100.00;100646.16;4977938;28;20027;-74
2020/12/25 01:55:49;;;;;;;15.70;9.27;;;;;;;11.82;100.00;100645.22;4977693;28;20503;-74
2020/12/25 01:58:36;;;;;;;15.05;9.95;;;;;;;11.87;100.00;100650.38;4978155;28;20472;-74
2020/12/25 02:01:22;;;;;;;14.13;9.18;;;;;;;11.71;100.00;100646.38;4978053;28;20019;-74
2020/12/25 02:04:08;;;;;;;13.63;9.25;;;;;;;11.79;100.00;100650.56;4977772;28;20030;-73
2020/12/25 02:06:54;;;;;;;12.73;8.35;;;;;;;11.89;100.00;100646.78;4976601;28;20042;-74
2020/12/25 02:09:39;;;;;;;12.18;8.70;;;;;;;11.81;100.00;100648.75;4976929;28;20038;-74
2020/12/25 02:12:25;;;;;;;12.38;8.63;;;;;;;11.63;100.00;100645.69;4978426;28;20112;-74
2020/12/25 02:15:12;;;;;;;16.80;9.18;;;;;;;11.81;100.00;100640.03;4977087;28;20459;-73
2020/12/25 02:17:58;;;;;;;17.83;9.85;;;;;;;12.06;100.00;100639.38;4978092;28;20034;-74
2020/12/25 02:20:44;;;;;;;13.60;9.00;;;;;;;11.83;100.00;100633.84;4977229;28;20049;-73
2020/12/25 02:23:30;;;;;;;14.13;8.60;;;;;;;11.87;100.00;100626.75;4978706;28;20027;-73
2020/12/25 02:26:15;;;;;;;12.30;8.88;;;;;;;11.83;100.00;100636.47;4978062;28;20456;-74
2020/12/25 02:29:03;;;;;;;11.88;8.00;;;;;;;11.94;100.00;100623.91;4977216;28;20031;-73
2020/12/25 02:31:48;;;;;;;11.13;8.68;;;;;;;12.00;100.00;100620.28;4977532;28;20459;-74
2020/12/25 02:34:34;;;;;;;11.70;9.05;;;;;;;11.87;100.00;100629.38;4977742;28;20082;-73
2020/12/25 02:37:20;;;;;;;12.13;8.77;;;;;;;12.07;100.00;100622.75;4977609;28;20128;-74
2020/12/25 02:40:06;;;;;;;11.20;8.02;;;;;;;12.11;100.00;100628.75;4976859;28;20026;-74
2020/12/25 02:42:52;;;;;;;11.85;7.72;;;;;;;12.07;100.00;100630.63;4975829;28;20045;-74
2020/12/25 02:45:38;;;;;;;11.70;7.63;;;;;;;11.99;100.00;100629.94;4976134;28;20424;-74
2020/12/25 02:48:26;;;;;;;14.27;8.13;;;;;;;11.86;100.00;100638.16;4977202;28;20034;-74
2020/12/25 02:51:12;;;;;;;13.13;8.27;;;;;;;11.62;100.00;100636.94;4975644;28;20061;-73
2020/12/25 02:53:58;;;;;;;13.55;8.48;;;;;;;11.91;100.00;100644.13;4976499;28;20029;-73
2020/12/25 02:56:44;;;;;;;10.77;8.40;;;;;;;11.55;100.00;100650.22;4977696;28;20345;-73
2020/12/25 02:59:29;;;;;;;13.27;8.95;;;;;;;11.97;100.00;100652.72;4977410;28;20038;-74
2020/12/25 03:02:16;;;;;;;12.18;9.02;;;;;;;11.87;100.00;100648.63;4975779;28;20113;-74
2020/12/25 03:05:02;;;;;;;12.25;8.35;;;;;;;11.99;100.00;100643.06;4977507;28;20086;-74
2020/12/25 03:07:48;;;;;;;10.43;8.15;;;;;;;11.78;100.00;100647.97;4976648;28;20027;-73
2020/12/25 03:10:34;;;;;;;11.55;8.23;;;;;;;12.04;100.00;100640.31;4976896;28;20113;-73
2020/12/25 03:13:19;;;;;;;10.55;8.02;;;;;;;11.98;100.00;100641.31;4977027;28;20451;-74
2020/12/25 03:16:05;;;;;;;12.60;8.55;;;;;;;11.82;100.00;100639.13;4977239;28;20030;-74
2020/12/25 03:18:51;;;;;;;12.48;8.68;;;;;;;11.81;100.00;100630.38;4976501;28;20058;-73
2020/12/25 03:21:37;;;;;;;12.18;8.27;;;;;;;12.08;100.00;100624.47;4976299;28;20030;-73
2020/12/25 03:24:23;;;;;;;12.35;8.02;;;;;;;11.49;100.00;100626.75;4976932;28;20444;-73
2020/12/25 03:27:09;;;;;;;11.20;8.18;;;;;;;11.90;100.00;100627.50;4976664;28;20440;-74
2020/12/25 03:29:54;;;;;;;10.95;8.10;;;;;;;11.95;100.00;100623.03;4976851;28;20053;-73
2020/12/25 03:32:40;;;;;;;11.93;8.40;;;;;;;11.99;100.00;100629.94;4976248;28;20089;-73
2020/12/25 03:35:26;;;;;;;10.63;7.65;;;;;;;11.95;100.00;100636.16;4976456;28;20035;-74
2020/12/25 03:38:12;;;;;;;11.95;8.35;;;;;;;11.90;100.00;100631.91;4975658;28;20066;-74
2020/12/25 03:41:00;;;;;;;13.43;7.82;;;;;;;11.74;100.00;100626.16;4976876;28;20484;-74
2020/12/25 03:43:46;;;;;;;11.90;8.50;;;;;;;12.02;100.00;100632.47;4975621;28;20062;-73
2020/12/25 03:46:34;;;;;;;14.43;8.77;;;;;;;12.01;100.00;100622.88;4976858;28;20376;-74
2020/12/25 03:49:19;;;;;;;15.00;9.50;;;;;;;12.15;100.00;100627.78;4975667;28;20035;-73
2020/12/25 03:52:05;;;;;;;12.43;7.95;;;;;;;11.99;100.00;100619.44;4974687;28;20062;-73
2020/12/25 03:54:51;;;;;;;13.07;7.90;;;;;;;11.99;100.00;100619.44;4976063;28;20105;-74
2020/12/25 03:57:37;;;;;;;11.80;8.23;;;;;;;11.99;100.00;100611.56;4976498;28;20038;-73
2020/12/25 04:00:22;;;;;;;13.38;8.40;;;;;;;12.02;100.00;100626.38;4975996;28;20030;-73
2020/12/25 04:03:08;;;;;;;11.00;8.20;;;;;;;12.07;100.00;100625.38;4974703;28;20026;-74
2020/12/25 04:05:56;;;;;;;11.80;8.02;;;;;;;12.14;100.00;100624.28;4975537;28;20034;-73
2020/12/25 04:08:44;;;;;;;12.07;7.95;;;;;;;12.06;100.00;100614.91;4976638;28;20077;-74
2020/12/25 04:11:29;;;;;;;11.05;8.07;;;;;;;12.05;100.00;100626.31;4975892;28;20023;-75
2020/12/25 04:14:16;;;;;;;10.90;7.65;;;;;;;11.93;100.00;100621.34;4975979;28;20483;-73
2020/12/25 04:17:02;;;;;;;11.68;8.18;;;;;;;11.92;100.00;100616.97;4974958;28;20452;-73
2020/12/25 04:19:48;;;;;;;11.80;8.18;;;;;;;11.90;100.00;100622.25;4975266;28;20037;-75
2020/12/25 04:22:34;;;;;;;12.13;8.05;;;;;;;12.15;100.00;100626.03;4975834;28;20027;-74
2020/12/25 04:25:20;;;;;;;12.48;8.38;;;;;;;12.12;100.00;100633.97;4975213;28;20110;-74
2020/12/25 04:28:06;;;;;;;12.13;8.43;;;;;;;11.98;100.00;100632.59;4976373;28;20367;-74
2020/12/25 04:30:52;;;;;;;12.38;8.50;;;;;;;11.87;100.00;100635.50;4975426;28;20058;-75
2020/12/25 04:33:37;;;;;;;12.02;8.35;;;;;;;11.63;100.00;100632.56;4976981;28;20173;-74
2020/12/25 04:36:23;;;;;;;12.05;7.60;;;;;;;11.86;100.00;100625.88;4977737;28;20057;-74
2020/12/25 04:39:09;;;;;;;11.48;8.20;;;;;;;11.75;100.00;100630.53;4980306;28;20375;-74
2020/12/25 04:41:56;;;;;;;11.98;7.90;;;;;;;11.90;100.00;100630.13;4978835;28;20030;-74
2020/12/25 04:44:42;;;;;;;13.48;8.27;;;;;;;11.98;100.00;100629.97;4978789;28;20046;-73
2020/12/25 04:47:27;;;;;;;9.98;7.13;;;;;;;12.02;100.00;100626.38;4979738;28;20050;-73
2020/12/25 04:50:13;;;;;;;11.45;7.60;;;;;;;12.16;100.00;100629.50;4980009;28;20031;-73
2020/12/25 04:53:00;;;;;;;10.18;7.70;;;;;;;11.97;100.00;100629.09;4979957;28;20031;-74
2020/12/25 04:55:45;;;;;;;12.88;7.93;;;;;;;11.85;100.00;100626.78;4979812;28;20023;-74
2020/12/25 04:58:31;;;;;;;10.40;7.20;;;;;;;11.88;100.00;100633.72;4978062;28;20027;-73
2020/12/25 05:01:17;;;;;;;11.35;7.43;;;;;;;12.06;100.00;100634.13;4979139;28;20461;-74
2020/12/25 05:04:03;;;;;;;13.20;8.77;;;;;;;12.03;100.00;100628.97;4978430;28;20051;-74
2020/12/25 05:06:51;;;;;;;10.15;7.32;;;;;;;12.21;100.00;100625.88;4978947;28;20022;-74
2020/12/25 05:09:37;;;;;;;9.00;7.20;;;;;;;12.00;100.00;100629.03;4978965;28;20367;-74
2020/12/25 05:12:25;;;;;;;10.30;7.30;;;;;;;12.06;100.00;100626.25;4978415;28;20056;-74
2020/12/25 05:15:11;;;;;;;11.40;7.85;;;;;;;11.99;100.00;100627.31;4978282;28;20113;-74
2020/12/25 05:17:58;;;;;;;10.60;7.70;;;;;;;12.07;100.00;100627.13;4978895;28;20470;-73
2020/12/25 05:20:45;;;;;;;9.82;7.22;;;;;;;11.80;100.00;100630.41;4978781;28;20587;-75
2020/12/25 05:23:32;;;;;;;10.90;7.20;;;;;;;12.15;100.00;100622.53;4977638;28;20041;-74
2020/12/25 05:26:18;;;;;;;10.27;7.03;;;;;;;12.06;100.00;100617.53;4978067;28;20031;-74
2020/12/25 05:29:04;;;;;;;9.43;6.75;;;;;;;12.26;100.00;100631.84;4979059;28;20034;-74
2020/12/25 05:31:51;;;;;;;10.98;7.47;;;;;;;11.96;100.00;100626.50;4978476;28;20118;-74
2020/12/25 05:34:37;;;;;;;13.23;8.57;;;;;;;11.94;100.00;100620.44;4978657;28;20015;-73
2020/12/25 05:37:33;;;;;;;11.00;8.15;;;;;;;11.65;100.00;100620.28;4976670;28;20470;-74
2020/12/25 05:40:19;;;;;;;13.18;8.27;;;;;;;12.05;100.00;100626.31;4978258;28;20447;-73
2020/12/25 05:43:05;;;;;;;13.45;8.13;;;;;;;11.85;100.00;100623.31;4978385;28;20030;-73
2020/12/25 05:45:51;;;;;;;11.57;8.43;;;;;;;12.12;100.00;100625.22;4976958;28;20027;-74
2020/12/25 05:48:37;;;;;;;12.73;8.88;;;;;;;12.16;100.00;100614.63;4977683;28;20049;-74
2020/12/25 05:51:22;;;;;;;11.15;8.75;;;;;;;11.95;100.00;100609.91;4978761;28;20113;-74
2020/12/25 05:54:09;;;;;;;13.73;8.45;;;;;;;12.12;100.00;100620.84;4978275;28;20026;-74
2020/12/25 05:56:56;;;;;;;11.43;7.93;;;;;;;12.17;100.00;100615.50;4977492;28;20018;-74
2020/12/25 05:59:47;;;;;;;11.07;7.60;;;;;;;12.08;100.00;100616.56;4978123;28;20037;-74
2020/12/25 06:02:36;;;;;;;11.32;7.75;;;;;;;12.07;100.00;100620.13;4978065;28;20034;-73
2020/12/25 06:05:24;;;;;;;12.32;8.20;;;;;;;12.23;100.00;100618.81;4977351;28;20062;-74
2020/12/25 06:08:18;;;;;;;10.65;7.85;;;;;;;12.29;100.00;100616.03;4978498;28;20105;-73
2020/12/25 06:11:04;;;;;;;12.48;7.43;;;;;;;12.16;100.00;100619.88;4978075;28;20125;-74
2020/12/25 06:13:51;;;;;;;11.68;7.15;;;;;;;12.21;100.00;100627.63;4978360;28;20106;-73
2020/12/25 06:16:40;;;;;;;10.27;7.85;;;;;;;12.39;100.00;100628.03;4976514;28;20037;-73
2020/12/25 06:19:32;;;;;;;10.60;7.28;;;;;;;12.30;100.00;100643.16;4977853;28;20023;-73
2020/12/25 06:22:47;;;;;;;10.45;7.60;;;;;;;12.56;100.00;100644.22;4976434;28;20055;-73
2020/12/25 06:25:34;;;;;;;11.32;7.80;;;;;;;12.79;100.00;100643.59;4975513;28;20039;-73
2020/12/25 06:28:19;;;;;;;10.52;7.70;;;;;;;12.53;100.00;100651.28;4977035;28;20035;-74
2020/12/25 06:31:09;;;;;;;11.48;7.90;;;;;;;12.75;100.00;100648.06;4976769;28;20093;-74
2020/12/25 06:33:55;;;;;;;13.10;8.00;;;;;;;12.76;100.00;100641.91;4976142;28;20027;-74
2020/12/25 06:36:45;;;;;;;14.02;8.70;;;;;;;12.57;100.00;100645.91;4977421;28;20110;-74
2020/12/25 06:39:31;;;;;;;15.35;9.70;;;;;;;12.62;100.00;100654.53;4976032;28;20124;-74
2020/12/25 06:42:32;;;;;;;12.32;8.35;;;;;;;12.58;100.00;100645.00;4975858;28;20038;-74
2020/12/25 06:45:29;;;;;;;11.52;8.75;;;;;;;12.84;100.00;100646.94;4976752;28;20042;-74
2020/12/25 06:48:17;;;;;;;15.77;10.30;;;;;;;12.78;100.00;100644.50;4976727;28;20459;-74
2020/12/25 06:51:03;;;;;;;14.75;9.63;;;;;;;12.78;100.00;100647.97;4975891;28;20444;-74
2020/12/25 06:53:54;;;;;;;13.52;9.18;;;;;;;12.80;100.00;100654.06;4977643;28;20066;-73
2020/12/25 06:56:41;;;;;;;12.98;8.90;;;;;;;12.70;100.00;100657.81;4976527;28;20075;-73
2020/12/25 06:59:27;;;;;;;12.93;8.32;;;;;;;12.32;100.00;100654.47;4977442;28;20495;-74
2020/12/25 07:02:14;;;;;;;12.90;8.23;;;;;;;12.46;100.00;100647.13;4975540;28;20114;-74
2020/12/25 07:05:02;;;;;;;11.85;7.68;;;;;;;12.51;100.00;100643.47;4976776;28;20097;-75
2020/12/25 07:07:47;;;;;;;11.70;7.80;;;;;;;12.73;100.00;100643.72;4976351;28;20038;-75
2020/12/25 07:10:35;;;;;;;13.52;8.52;;;;;;;12.90;100.00;100647.63;4976639;28;20019;-73
2020/12/25 07:13:22;;;;;;;15.52;8.63;;;;;;;13.04;100.00;100640.25;4976895;28;20058;-75
2020/12/25 07:16:08;;;;;;;14.40;8.77;;;;;;;12.85;100.00;100632.88;4976127;28;20030;-74
2020/12/25 07:18:53;;;;;;;15.68;9.20;;;;;;;12.83;100.00;100632.91;4977163;28;20034;-74
2020/12/25 07:21:40;;;;;;;14.88;8.30;;;;;;;13.03;100.00;100630.63;4976119;28;20042;-75
2020/12/25 07:24:26;;;;;;;14.07;8.70;;;;;;;13.15;100.00;100647.84;4976428;28;20066;-73
2020/12/25 07:27:14;;;;;;;16.08;10.50;;;;;;;13.44;100.00;100640.81;4976099;28;20066;-74
2020/12/25 07:29:59;;;;;;;13.30;9.98;;;;;;;13.20;100.00;100643.28;4975169;28;20023;-74
2020/12/25 07:32:45;;;;;;;14.55;8.82;;;;;;;13.18;100.00;100640.72;4976257;28;20052;-75
2020/12/25 07:35:32;;;;;;;11.57;7.88;;;;;;;13.41;100.00;100634.75;4976712;28;20023;-73
2020/12/25 07:38:19;;;;;;;12.88;8.35;;;;;;;13.56;100.00;100635.19;4975853;28;20034;-75
2020/12/25 07:41:05;;;;;;;13.55;8.20;;;;;;;13.86;100.00;100636.81;4975080;28;20109;-74
2020/12/25 07:43:55;;;;;;;13.90;8.23;;;;;;;13.69;100.00;100643.53;4975232;28;20466;-75
2020/12/25 07:46:41;;;;;;;11.88;7.93;;;;;;;13.45;100.00;100633.75;4976562;28;20387;-74
2020/12/25 07:49:28;;;;;;;11.32;7.72;;;;;;;13.80;100.00;100631.78;4975700;28;20019;-73
2020/12/25 07:52:14;;;;;;;10.95;8.02;;;;;;;13.82;100.00;100632.56;4975562;28;20027;-74
2020/12/25 07:55:00;;;;;;;12.05;7.53;;;;;;;14.04;100.00;100638.00;4976772;28;20100;-75
2020/12/25 07:57:47;;;;;;;12.00;7.88;;;;;;;14.04;100.00;100638.00;4976221;28;20023;-75
2020/12/25 08:00:33;;;;;;;13.02;8.13;;;;;;;14.12;100.00;100635.97;4975447;28;20030;-76
2020/12/25 08:03:21;;;;;;;11.40;7.50;;;;;;;14.14;100.00;100632.38;4975801;28;20426;-75
2020/12/25 08:06:08;;;;;;;13.45;8.95;;;;;;;14.25;100.00;100629.41;4975344;28;20053;-76
2020/12/25 08:09:05;;;;;;;12.68;7.40;;;;;;;14.01;100.00;100628.44;4975089;28;20023;-74
2020/12/25 08:11:51;;;;;;;11.63;7.72;;;;;;;13.84;100.00;100627.25;4975284;28;20133;-74
2020/12/25 08:14:39;;;;;;;10.93;7.75;;;;;;;13.76;100.00;100621.38;4974393;28;20037;-77
2020/12/25 08:17:25;;;;;;;16.55;12.80;;;;;;;14.22;100.00;100621.59;4974764;28;20034;-75
2020/12/25 08:20:11;;;;;;;15.45;9.65;;;;;;;14.00;100.00;100636.38;4975541;28;20027;-76
2020/12/25 08:22:58;;;;;;;16.52;11.60;;;;;;;14.17;100.00;100624.38;4975363;28;20101;-76
2020/12/25 08:25:52;;;;;;;11.15;7.70;;;;;;;14.07;100.00;100640.56;4976505;28;20027;-76
2020/12/25 08:28:38;;;;;;;8.93;7.18;;;;;;;14.33;100.00;100640.56;4975812;28;20524;-75
2020/12/25 08:31:23;;;;;;;10.88;7.25;;;;;;;14.17;100.00;100631.41;4975141;28;20051;-75
2020/12/25 08:34:14;;;;;;;10.10;7.32;;;;;;;14.22;100.00;100625.13;4975097;28;20049;-74
2020/12/25 08:37:02;;;;;;;10.77;7.65;;;;;;;14.43;100.00;100634.94;4974642;28;20035;-74
2020/12/25 08:39:48;;;;;;;15.43;8.65;;;;;;;14.88;100.00;100624.53;4974710;28;20062;-74
2020/12/25 08:42:33;;;;;;;13.50;8.48;;;;;;;15.12;100.00;100625.41;4975366;28;20057;-76
2020/12/25 08:45:21;;;;;;;13.48;8.82;;;;;;;14.78;100.00;100636.31;4975750;28;20038;-75
2020/12/25 08:48:11;;;;;;;10.35;7.78;;;;;;;14.92;100.00;100639.34;4975769;28;20456;-73
2020/12/25 08:51:11;;;;;;;12.23;7.85;;;;;;;14.22;100.00;100635.66;4975274;28;20048;-75
2020/12/25 08:53:57;;;;;;;12.13;8.02;;;;;;;14.94;100.00;100621.66;4974918;28;20089;-75
2020/12/25 08:56:43;;;;;;;10.27;7.65;;;;;;;15.06;100.00;100628.28;4975300;28;20042;-76
2020/12/25 08:59:29;;;;;;;12.85;8.30;;;;;;;15.27;100.00;100617.75;4974974;28;20041;-77
2020/12/25 09:02:15;;;;;;;12.93;8.00;;;;;;;15.30;100.00;100614.16;4974193;28;20034;-74
2020/12/25 09:05:01;;;;;;;13.30;7.35;;;;;;;15.26;100.00;100612.56;4974345;28;20042;-74
2020/12/25 09:07:47;;;;;;;13.48;8.65;;;;;;;15.09;100.00;100601.75;4975470;28;20047;-76
2020/12/25 09:10:33;;;;;;;16.67;9.02;;;;;;;15.18;100.00;100589.09;4974989;28;20030;-74
2020/12/25 09:13:18;;;;;;;18.13;9.90;;;;;;;15.02;100.00;100589.75;4976085;28;20451;-76
2020/12/25 09:16:05;;;;;;;15.60;10.20;;;;;;;15.05;100.00;100590.47;4975303;28;20031;-76
2020/12/25 09:18:51;;;;;;;15.20;9.52;;;;;;;15.14;100.00;100584.00;4975404;28;20035;-76
2020/12/25 09:21:37;;;;;;;19.38;9.30;;;;;;;15.39;100.00;100592.72;4978327;28;20034;-74
2020/12/25 09:24:23;;;;;;;14.48;9.13;;;;;;;15.20;100.00;100583.75;4979068;28;20027;-75
2020/12/25 09:27:08;;;;;;;14.55;9.50;;;;;;;15.41;100.00;100581.19;4979357;28;20110;-77
2020/12/25 09:29:54;;;;;;;15.82;10.52;;;;;;;15.19;100.00;100585.53;4978928;28;20027;-76
2020/12/25 09:32:40;;;;;;;18.58;10.88;;;;;;;15.62;100.00;100580.31;4980155;28;20449;-76
2020/12/25 09:35:26;;;;;;;21.77;12.07;;;;;;;15.99;100.00;100571.75;4979726;28;20038;-74
2020/12/25 09:38:12;;;;;;;19.73;11.68;;;;;;;16.22;100.00;100569.88;4979632;28;20348;-75
2020/12/25 09:40:58;;;;;;;17.63;11.20;;;;;;;16.15;100.00;100551.69;4979825;28;20031;-75
2020/12/25 09:43:43;;;;;;;19.05;11.65;;;;;;;16.62;100.00;100550.50;4979836;28;20057;-75
2020/12/25 09:46:29;;;;;;;17.45;11.93;;;;;;;16.72;100.00;100542.06;4978387;28;20034;-77
2020/12/25 09:49:15;;;;;;;16.90;11.55;;;;;;;16.63;100.00;100545.13;4979311;28;20100;-73
2020/12/25 09:52:05;;;;;;;15.25;10.32;;;;;;;16.38;100.00;100548.91;4978179;28;20030;-75
2020/12/25 09:54:50;;;;;;;19.92;10.20;;;;;;;16.23;100.00;100546.94;4980030;28;20019;-74
2020/12/25 09:57:36;;;;;;;14.05;8.55;;;;;;;15.92;100.00;100550.03;4978464;28;20105;-76
2020/12/25 10:00:22;;;;;;;12.38;8.25;;;;;;;15.78;100.00;100544.44;4978761;28;20105;-77
2020/12/25 10:03:08;;;;;;;15.43;9.55;;;;;;;16.03;100.00;100531.91;4978717;28;20113;-77
2020/12/25 10:05:53;;;;;;;20.60;10.75;;;;;;;15.86;100.00;100530.91;4977871;28;20030;-76
2020/12/25 10:08:39;;;;;;;21.90;10.32;;;;;;;15.89;100.00;100541.34;4977073;28;20027;-74
2020/12/25 10:11:25;;;;;;;17.00;9.85;;;;;;;16.20;100.00;100532.03;4977297;28;20042;-76
2020/12/25 10:14:10;;;;;;;16.13;9.10;;;;;;;16.36;100.00;100526.97;4979122;28;20387;-73
2020/12/25 10:16:57;;;;;;;13.88;9.80;;;;;;;16.71;100.00;100531.56;4976002;28;20023;-74
2020/12/25 10:19:44;;;;;;;14.23;10.15;;;;;;;16.79;100.00;100526.78;4977135;28;20034;-74
2020/12/25 10:22:30;;;;;;;16.13;11.20;;;;;;;16.95;100.00;100525.13;4977225;28;20026;-77
2020/12/25 10:25:15;;;;;;;21.23;13.73;;;;;;;16.91;100.00;100526.22;4977260;28;20057;-77
2020/12/25 10:28:01;;;;;;;16.58;12.70;;;;;;;17.11;100.00;100524.38;4977735;28;20427;-76
2020/12/25 10:30:47;;;;;;;20.60;13.00;;;;;;;17.03;100.00;100513.28;4975243;28;20061;-76
2020/12/25 10:33:33;;;;;;;20.13;13.10;;;;;;;16.90;100.00;100521.84;4977472;28;20089;-75
2020/12/25 10:36:25;;;;;;;15.05;10.15;;;;;;;16.65;100.00;100513.31;4977076;28;20103;-75
2020/12/25 10:39:11;;;;;;;12.93;9.13;;;;;;;16.13;100.00;100498.03;4976280;28;20073;-76
2020/12/25 10:41:57;;;;;;;13.10;8.75;;;;;;;16.23;100.00;100491.44;4976720;28;20374;-77
2020/12/25 10:44:42;;;;;;;14.90;8.90;;;;;;;16.14;100.00;100475.94;4977804;28;20027;-77
2020/12/25 10:47:28;;;;;;;10.75;8.00;;;;;;;16.65;100.00;100486.88;4977599;28;20027;-75
2020/12/25 10:50:14;;;;;;;13.73;8.95;;;;;;;16.75;100.00;100477.56;4977435;28;20035;-76
2020/12/25 10:53:00;;;;;;;11.85;6.95;;;;;;;16.47;100.00;100474.50;4976632;28;20422;-76
2020/12/25 10:55:45;;;;;;;13.00;7.68;;;;;;;17.09;100.00;100483.88;4976999;28;20088;-76
2020/12/25 10:58:31;;;;;;;10.63;7.70;;;;;;;16.68;100.00;100484.09;4975161;28;20097;-73
2020/12/25 11:01:24;;;;;;;13.13;8.43;;;;;;;16.97;100.00;100480.94;4975676;28;20029;-76
2020/12/25 11:04:10;;;;;;;11.70;8.60;;;;;;;16.79;100.00;100479.16;4976278;28;20041;-74
2020/12/25 11:06:56;;;;;;;13.27;9.00;;;;;;;17.03;100.00;100483.28;4976955;28;20038;-75
2020/12/25 11:09:41;;;;;;;13.75;8.43;;;;;;;16.87;100.00;100474.34;4976872;28;20034;-74
2020/12/25 11:12:27;;;;;;;16.13;10.05;;;;;;;17.04;100.00;100467.34;4976650;28;20037;-74
2020/12/25 11:15:13;;;;;;;18.48;11.40;;;;;;;16.70;100.00;100463.72;4976876;28;20444;-75
2020/12/25 11:17:58;;;;;;;13.88;9.95;;;;;;;16.45;100.00;100461.34;4976647;28;20105;-76
2020/12/25 11:20:44;;;;;;;17.55;10.18;;;;;;;17.06;100.00;100464.63;4976834;28;20371;-77
2020/12/25 11:23:30;;;;;;;16.65;10.68;;;;;;;17.36;100.00;100468.47;4975526;28;20026;-76
2020/12/25 11:26:20;;;;;;;16.65;11.27;;;;;;;17.29;100.00;100473.19;4976062;28;20031;-77
2020/12/25 11:29:07;;;;;;;15.15;10.77;;;;;;;16.93;100.00;100464.38;4975156;28;20069;-76
2020/12/25 11:31:53;;;;;;;17.95;10.48;;;;;;;17.04;100.00;100469.16;4975679;28;20116;-78
2020/12/25 11:34:38;;;;;;;15.88;9.93;;;;;;;17.23;100.00;100464.66;4975071;28;20019;-77
2020/12/25 11:37:24;;;;;;;15.63;10.13;;;;;;;17.31;100.00;100460.72;4976401;28;20206;-76
2020/12/25 11:40:10;;;;;;;14.75;9.80;;;;;;;17.49;100.00;100466.94;4975723;28;20027;-75
2020/12/25 11:42:56;;;;;;;13.93;9.48;;;;;;;17.09;100.00;100459.19;4976113;28;20105;-76
2020/12/25 11:45:42;;;;;;;15.05;10.25;;;;;;;17.20;100.00;100457.72;4974784;28;20085;-74
2020/12/25 11:48:28;;;;;;;19.98;11.25;;;;;;;17.30;100.00;100459.00;4975008;28;20058;-75
2020/12/25 11:51:21;;;;;;;14.40;9.93;;;;;;;17.15;100.00;100466.81;4976468;28;20451;-74
2020/12/25 11:54:07;;;;;;;19.67;9.80;;;;;;;17.35;100.00;100467.59;4975564;28;20518;-76
2020/12/25 11:56:53;;;;;;;19.55;11.90;;;;;;;17.31;100.00;100467.78;4974905;28;20332;-76
2020/12/25 11:59:39;;;;;;;20.25;12.00;;;;;;;17.48;100.00;100459.94;4975567;28;20042;-77
2020/12/25 12:02:25;;;;;;;17.42;12.48;;;;;;;17.47;100.00;100467.00;4975339;28;20026;-75
2020/12/25 12:05:10;;;;;;;19.65;13.50;;;;;;;17.54;100.00;100465.78;4974954;28;20090;-77
2020/12/25 12:07:56;;;;;;;24.08;14.02;;;;;;;17.47;100.00;100463.50;4975643;28;20166;-76
2020/12/25 12:10:42;;;;;;;23.48;14.43;;;;;;;17.51;100.00;100462.41;4975579;28;20043;-77
2020/12/25 12:13:28;;;;;;;20.67;14.02;;;;;;;17.43;100.00;100461.94;4975263;28;20444;-76
2020/12/25 12:16:15;;;;;;;21.40;13.65;;;;;;;17.37;100.00;100463.06;4974466;28;20031;-77
2020/12/25 12:19:01;;;;;;;23.50;15.02;;;;;;;17.23;100.00;100465.53;4974954;28;20030;-77
2020/12/25 12:21:46;;;;;;;21.58;14.75;;;;;;;17.43;100.00;100467.22;4975031;28;20063;-76
2020/12/25 12:24:32;;;;;;;21.65;15.57;;;;;;;17.42;100.00;100463.75;4975239;28;20031;-77
2020/12/25 12:27:18;;;;;;;26.65;17.27;;;;;;;17.28;100.00;100460.88;4974555;28;20038;-77
2020/12/25 12:30:05;;;;;;;26.52;17.40;;;;;;;17.32;100.00;100462.44;4974822;28;20026;-76
2020/12/25 12:32:51;;;;;;;28.48;16.67;;;;;;;17.37;100.00;100457.75;4975334;28;20486;-77
2020/12/25 12:35:36;;;;;;;23.95;14.93;;;;;;;17.41;100.00;100456.72;4975009;28;20387;-76